Time;durP1;ratioP1;P1;durP2;ratioP2;P2;SDS_P1;SDS_P2;PMS_P1;PMS_P2;Temp;Humidity;BMP_temperature;BMP_pressure;BME280_temperature;BME280_humidity;BME280_pressure;Samples;Min_cycle;Max_cycle;Signal;HPM_P1;HPM_P2
2022/01/14 00:01:31;;;;;;;20.53;12.03;;;1.10;92.50;;;1.56;65.13;99544.25;4949555;29;20059;-41
2022/01/14 00:03:59;;;;;;;22.37;12.47;;;1.10;91.90;;;1.57;65.25;99538.06;4949331;29;20073;-41
2022/01/14 00:06:27;;;;;;;20.27;12.40;;;1.10;91.40;;;1.59;65.38;99528.38;4948964;29;20054;-41
2022/01/14 00:09:02;;;;;;;25.73;13.87;;;1.20;92.10;;;1.65;65.90;99536.03;4948026;29;20275;-41
2022/01/14 00:11:31;;;;;;;22.40;12.80;;;1.30;92.10;;;1.68;65.36;99528.00;4949009;29;20061;-41
2022/01/14 00:16:33;;;;;;;20.23;12.45;;;1.30;91.60;;;1.72;65.60;99528.75;4949285;29;20345;-41
2022/01/14 00:19:01;;;;;;;25.03;12.63;;;1.30;91.50;;;1.75;65.37;99534.75;4949110;29;20051;-41
2022/01/14 00:21:30;;;;;;;22.73;13.03;;;1.40;91.30;;;1.79;65.59;99537.25;4947296;29;20049;-41
2022/01/14 00:24:10;;;;;;;20.63;12.57;;;1.40;91.20;;;1.80;65.54;99542.44;4948800;29;20599;-41
2022/01/14 00:32:20;;;;;;;25.77;12.93;;;1.50;90.80;;;1.87;65.58;99536.03;4931970;29;20061;-42
2022/01/14 00:34:47;;;;;;;26.60;13.17;;;1.50;90.60;;;1.88;65.65;99534.25;4948734;29;20051;-41
2022/01/14 00:37:17;;;;;;;25.53;13.37;;;1.50;90.60;;;1.88;65.27;99532.50;4949583;29;20061;-42
2022/01/14 00:39:46;;;;;;;24.97;13.93;;;1.50;90.40;;;1.87;65.29;99530.78;4939579;29;20257;-41
2022/01/14 00:42:14;;;;;;;22.87;13.03;;;1.50;90.10;;;1.87;65.32;99527.31;4948594;29;20061;-41
2022/01/14 00:44:42;;;;;;;25.23;13.57;;;1.40;90.10;;;1.86;65.11;99525.56;4948865;29;20057;-41
2022/01/14 00:47:10;;;;;;;23.60;12.83;;;1.50;90.00;;;1.84;65.03;99522.16;4947746;29;20155;-41
2022/01/14 00:49:38;;;;;;;21.53;12.97;;;1.40;89.60;;;1.84;65.01;99516.91;4948663;29;20762;-41
2022/01/14 00:52:06;;;;;;;24.23;12.87;;;1.40;89.60;;;1.81;65.00;99519.66;4948073;29;20556;-41
2022/01/14 00:54:34;;;;;;;23.20;12.60;;;1.30;89.70;;;1.79;65.13;99521.50;4948562;29;20050;-41
2022/01/14 00:57:15;;;;;;;22.30;12.83;;;1.30;89.70;;;1.76;65.53;99523.34;4949298;29;20055;-41
2022/01/14 00:59:43;;;;;;;24.23;13.07;;;1.30;89.70;;;1.78;65.63;99520.63;4946880;29;20047;-41
2022/01/14 01:02:11;;;;;;;23.30;12.30;;;1.40;89.90;;;1.80;65.49;99512.69;4949006;29;20241;-42
2022/01/14 01:04:40;;;;;;;21.97;12.07;;;1.40;89.70;;;1.77;65.05;99522.41;4949160;29;20361;-42
2022/01/14 01:07:10;;;;;;;21.13;12.17;;;1.30;89.40;;;1.73;65.27;99523.44;4948707;29;20058;-41
2022/01/14 01:09:45;;;;;;;21.20;11.83;;;1.20;89.00;;;1.70;65.34;99513.03;4948299;29;20296;-41
2022/01/14 01:12:45;;;;;;;22.07;13.10;;;1.20;89.70;;;1.66;65.18;99521.13;4946366;29;20265;-41
2022/01/14 01:15:16;;;;;;;22.13;11.77;;;1.10;89.70;;;1.58;64.81;99518.78;4948369;29;20061;-41
2022/01/14 01:17:45;;;;;;;22.07;11.17;;;1.00;89.90;;;1.54;65.31;99514.56;4948543;29;20051;-41
2022/01/14 01:20:18;;;;;;;20.40;11.50;;;0.90;90.60;;;1.50;65.53;99519.06;4948458;29;20057;-41
2022/01/14 01:22:50;;;;;;;23.08;11.98;;;0.90;90.80;;;1.46;65.41;99520.09;4948776;29;20401;-41
2022/01/14 01:25:37;;;;;;;23.50;12.10;;;0.90;91.10;;;1.44;64.89;99510.59;4947366;29;20059;-41
2022/01/14 01:28:05;;;;;;;23.73;12.27;;;0.90;91.30;;;1.42;65.50;99512.41;4948058;29;20391;-41
2022/01/14 01:33:06;;;;;;;21.80;11.80;;;0.90;91.40;;;1.41;65.75;99514.16;4945865;29;20056;-41
2022/01/14 01:35:34;;;;;;;22.23;12.20;;;0.90;91.10;;;1.38;65.72;99520.41;4947532;29;20350;-41
2022/01/14 01:38:02;;;;;;;22.83;11.63;;;0.90;90.80;;;1.37;65.17;99523.06;4949929;28;20063;-41
2022/01/14 01:40:30;;;;;;;21.93;11.63;;;0.90;90.60;;;1.36;65.57;99519.59;4951419;29;20396;-41
2022/01/14 01:43:02;;;;;;;24.07;12.97;;;0.90;90.90;;;1.37;64.95;99520.44;4950691;29;20055;-41
2022/01/14 01:45:30;;;;;;;28.73;14.33;;;0.90;90.70;;;1.37;65.48;99531.78;4951687;29;20054;-41
2022/01/14 01:47:58;;;;;;;23.50;13.47;;;0.90;90.70;;;1.36;65.30;99527.47;4952427;29;20085;-41
2022/01/14 01:50:30;;;;;;;27.47;14.80;;;0.90;90.60;;;1.35;65.08;99538.88;4951012;29;20051;-41
2022/01/14 01:52:58;;;;;;;22.37;12.63;;;0.90;90.50;;;1.31;65.13;99526.78;4952181;29;20265;-41
2022/01/14 01:55:26;;;;;;;20.77;12.27;;;0.80;90.20;;;1.28;64.77;99520.78;4952594;29;20062;-41
2022/01/14 01:57:54;;;;;;;25.43;12.33;;;0.80;90.60;;;1.23;65.61;99517.50;4949560;29;20063;-41
2022/01/14 02:00:25;;;;;;;19.50;11.50;;;0.70;90.90;;;1.17;64.70;99510.69;4950917;29;20361;-41
2022/01/14 02:02:56;;;;;;;23.17;12.03;;;0.60;90.60;;;1.12;65.24;99512.63;4951049;29;20061;-41
2022/01/14 02:05:25;;;;;;;21.60;12.67;;;0.50;91.40;;;1.10;65.27;99511.81;4951041;29;20059;-41
2022/01/14 02:07:53;;;;;;;20.87;12.10;;;0.50;94.00;;;1.10;65.18;99509.22;4950865;29;20055;-41
2022/01/14 02:10:22;;;;;;;24.17;11.90;;;0.50;93.30;;;1.10;65.27;99511.81;4949924;29;20361;-41
2022/01/14 02:12:53;;;;;;;21.40;12.30;;;0.60;93.40;;;1.11;65.79;99513.56;4949256;29;20055;-41
2022/01/14 02:15:30;;;;;;;21.33;12.47;;;0.60;92.90;;;1.11;65.34;99509.16;4951025;29;20055;-41
2022/01/14 02:23:32;;;;;;;22.90;13.17;;;0.70;92.70;;;1.12;65.65;99502.13;4950882;29;20061;-41
2022/01/14 02:26:00;;;;;;;19.13;11.33;;;0.70;92.70;;;1.12;65.62;99502.97;4949000;29;20058;-41
2022/01/14 02:28:28;;;;;;;21.30;11.40;;;0.70;92.70;;;1.12;65.46;99497.72;4950459;29;20047;-41
2022/01/14 02:30:56;;;;;;;22.43;12.37;;;0.60;92.20;;;1.11;65.59;99495.19;4949932;29;20449;-41
2022/01/14 02:33:24;;;;;;;19.50;11.80;;;0.60;91.80;;;1.09;65.57;99491.78;4949514;29;20059;-41
2022/01/14 02:35:54;;;;;;;19.20;11.47;;;0.60;92.30;;;1.10;65.73;99489.06;4950323;29;20059;-41
2022/01/14 02:38:22;;;;;;;19.83;11.73;;;0.60;92.10;;;1.08;65.81;99472.53;4950291;29;20345;-41
2022/01/14 02:40:50;;;;;;;22.80;12.63;;;0.60;91.70;;;1.08;65.63;99477.78;4950511;29;20049;-41
2022/01/14 02:43:18;;;;;;;23.67;11.93;;;0.60;91.50;;;1.08;66.04;99472.53;4949494;29;20066;-41
2022/01/14 02:45:53;;;;;;;20.20;12.03;;;0.60;91.50;;;1.10;65.50;99469.84;4950927;29;20063;-41
2022/01/14 02:48:28;;;;;;;21.03;12.27;;;0.70;91.80;;;1.10;65.78;99469.84;4949904;29;20051;-41
2022/01/14 02:51:07;;;;;;;22.13;11.33;;;0.60;91.60;;;1.12;66.01;99470.66;4949493;28;20051;-41
2022/01/14 02:56:13;;;;;;;23.33;12.77;;;0.70;92.20;;;1.12;65.91;99457.53;4949572;29;20057;-41
2022/01/14 02:58:42;;;;;;;20.07;11.50;;;0.70;92.20;;;1.12;65.74;99460.16;4949937;29;20067;-41
2022/01/14 03:01:17;;;;;;;20.53;11.27;;;0.70;92.30;;;1.14;66.13;99456.59;4949257;29;20051;-41
2022/01/14 03:03:46;;;;;;;21.67;11.83;;;0.70;92.30;;;1.14;65.98;99446.09;4942923;29;20341;-41
2022/01/14 03:06:15;;;;;;;22.10;12.63;;;0.70;92.00;;;1.14;65.60;99443.47;4948001;29;20445;-41
2022/01/14 03:08:45;;;;;;;21.07;11.57;;;0.70;92.00;;;1.14;66.14;99447.84;4950846;29;20115;-41
2022/01/14 03:11:30;;;;;;;22.70;11.80;;;0.70;91.90;;;1.14;65.52;99447.84;4947988;29;20063;-41
2022/01/14 03:13:59;;;;;;;21.20;11.17;;;0.70;92.10;;;1.15;65.68;99445.16;4949034;29;20047;-41
2022/01/14 03:16:27;;;;;;;20.33;12.73;;;0.70;92.20;;;1.13;65.46;99444.38;4949331;29;20257;-41
2022/01/14 03:19:04;;;;;;;20.90;11.83;;;0.70;92.10;;;1.14;65.77;99446.09;4950631;29;20062;-41
2022/01/14 03:21:39;;;;;;;24.13;11.30;;;0.60;92.20;;;1.14;65.73;99437.34;4949390;29;20349;-41
2022/01/14 03:26:50;;;;;;;24.77;11.53;;;0.70;92.20;;;1.20;66.16;99429.22;4950368;29;20069;-41
2022/01/14 03:29:19;;;;;;;17.83;10.97;;;0.80;92.20;;;1.22;65.97;99430.03;4949800;29;20065;-41
2022/01/14 03:31:47;;;;;;;20.57;11.03;;;0.80;91.20;;;1.19;65.82;99422.28;4950258;29;20055;-41
2022/01/14 03:34:15;;;;;;;20.50;11.17;;;0.80;90.60;;;1.17;65.50;99427.59;4947880;29;20344;-41
2022/01/14 03:36:45;;;;;;;18.93;11.40;;;0.70;90.80;;;1.20;65.49;99423.13;4950158;29;20050;-41
2022/01/14 03:39:17;;;;;;;19.93;11.13;;;0.80;90.30;;;1.19;65.82;99424.91;4949071;29;20051;-41
2022/01/14 03:41:46;;;;;;;16.73;11.47;;;0.70;90.10;;;1.18;65.83;99424.06;4941372;29;20047;-41
2022/01/14 03:44:15;;;;;;;21.37;11.33;;;0.70;89.90;;;1.15;65.47;99423.31;4948326;29;20043;-40
2022/01/14 03:46:44;;;;;;;15.30;10.97;;;0.70;89.70;;;1.11;65.61;99435.69;4949475;29;20191;-40
2022/01/14 03:49:12;;;;;;;17.93;10.93;;;0.70;89.30;;;1.04;65.71;99436.00;4949250;29;20065;-40
2022/01/14 03:51:42;;;;;;;18.77;10.53;;;0.50;89.20;;;1.03;65.83;99429.00;4949244;29;20057;-40
2022/01/14 03:54:10;;;;;;;18.10;11.07;;;0.50;89.80;;;1.02;65.38;99428.16;4949601;29;20055;-40
2022/01/14 03:56:38;;;;;;;20.63;10.77;;;0.50;90.00;;;1.02;65.72;99429.94;4948093;29;20051;-41
2022/01/14 03:59:05;;;;;;;18.80;11.53;;;0.50;90.20;;;1.03;65.44;99431.63;4948149;29;20250;-41
2022/01/14 04:01:33;;;;;;;18.40;10.93;;;0.50;90.30;;;1.03;65.62;99421.16;4948217;28;20061;-41
2022/01/14 04:04:01;;;;;;;19.87;12.80;;;0.60;89.90;;;1.01;65.28;99422.97;4948854;29;20047;-41
2022/01/14 04:06:30;;;;;;;18.07;10.63;;;0.60;89.30;;;1.01;65.81;99422.97;4949238;29;20050;-41
2022/01/14 04:08:58;;;;;;;17.17;10.50;;;0.60;89.50;;;0.98;65.83;99427.44;4949597;29;20234;-41
2022/01/14 04:11:28;;;;;;;17.20;10.73;;;0.50;89.50;;;0.98;65.67;99416.09;4948878;29;20439;-41
2022/01/14 04:14:07;;;;;;;17.03;10.43;;;0.50;89.80;;;0.94;65.55;99417.13;4948320;29;20058;-41
2022/01/14 04:16:36;;;;;;;18.47;10.80;;;0.40;89.80;;;0.91;65.68;99412.84;4949575;29;20394;-41
2022/01/14 04:19:04;;;;;;;16.97;10.27;;;0.40;90.60;;;0.91;65.73;99411.97;4949364;29;20063;-41
2022/01/14 04:21:32;;;;;;;18.03;10.43;;;0.40;90.40;;;0.93;65.09;99412.78;4948426;29;20453;-41
2022/01/14 04:24:00;;;;;;;17.13;9.97;;;0.50;90.30;;;0.94;65.57;99409.25;4948318;29;20061;-41
2022/01/14 04:26:27;;;;;;;16.27;9.93;;;0.50;90.10;;;0.93;65.75;99402.28;4950261;29;20249;-40
2022/01/14 04:28:55;;;;;;;17.37;10.63;;;0.50;89.50;;;0.94;65.63;99404.00;4948359;29;20047;-41
2022/01/14 04:31:23;;;;;;;16.67;9.90;;;0.50;89.50;;;0.92;64.91;99398.81;4948590;29;20368;-41
2022/01/14 04:33:51;;;;;;;15.77;10.67;;;0.50;88.70;;;0.92;65.19;99400.59;4946859;29;20062;-41
2022/01/14 04:36:19;;;;;;;18.47;11.30;;;0.50;88.70;;;0.89;64.74;99396.31;4949554;29;20047;-41
2022/01/14 04:38:46;;;;;;;16.57;10.90;;;0.40;88.50;;;0.88;65.62;99407.72;4949461;29;20201;-42
2022/01/14 04:41:14;;;;;;;15.30;9.73;;;0.40;88.60;;;0.87;65.43;99400.75;4947978;29;20043;-41
2022/01/14 04:43:42;;;;;;;17.47;10.27;;;0.40;88.70;;;0.87;64.91;99405.13;4947360;29;20070;-41
2022/01/14 04:48:38;;;;;;;18.07;9.67;;;0.30;87.90;;;0.79;65.47;99397.56;4948927;29;20055;-41
2022/01/14 04:51:09;;;;;;;13.67;9.97;;;0.30;88.50;;;0.78;65.01;99388.84;4948537;29;20062;-41
2022/01/14 04:53:38;;;;;;;15.70;10.00;;;0.30;89.30;;;0.77;65.73;99395.00;4949472;29;20054;-40
2022/01/14 04:56:06;;;;;;;16.27;9.67;;;0.30;89.30;;;0.75;65.30;99393.34;4948713;29;20055;-41
2022/01/14 04:58:34;;;;;;;15.83;9.17;;;0.30;89.30;;;0.74;64.97;99394.28;4947521;29;20055;-41
2022/01/14 05:01:02;;;;;;;14.60;9.37;;;0.30;89.40;;;0.73;65.05;99393.41;4948910;29;20399;-41
2022/01/14 05:03:30;;;;;;;14.03;9.40;;;0.20;89.10;;;0.72;65.44;99390.84;4946771;29;20043;-41
2022/01/14 05:06:00;;;;;;;16.83;9.97;;;0.30;89.60;;;0.72;65.38;99388.22;4931823;29;20051;-40
2022/01/14 05:08:36;;;;;;;15.87;9.60;;;0.20;89.40;;;0.70;65.79;99400.50;4949408;29;20043;-40
2022/01/14 05:13:45;;;;;;;13.70;8.77;;;0.20;89.70;;;0.72;65.60;99404.81;4952005;28;20379;-40
2022/01/14 05:16:13;;;;;;;14.53;7.87;;;0.20;89.00;;;0.73;65.86;99405.66;4953292;29;20245;-39
2022/01/14 05:18:41;;;;;;;15.33;8.63;;;0.30;89.10;;;0.72;65.39;99406.59;4952801;29;20105;-40
2022/01/14 05:21:09;;;;;;;13.73;9.03;;;0.20;88.50;;;0.72;65.77;99403.97;4952966;29;20049;-40
2022/01/14 05:23:36;;;;;;;15.47;9.13;;;0.20;88.90;;;0.69;65.21;99396.19;4952038;29;20081;-40
2022/01/14 05:26:04;;;;;;;18.77;9.57;;;0.20;88.70;;;0.68;65.69;99397.97;4951524;29;20341;-40
2022/01/14 05:28:32;;;;;;;14.20;8.70;;;0.20;88.90;;;0.69;65.55;99396.19;4952886;29;20051;-40
2022/01/14 05:31:00;;;;;;;15.40;9.20;;;0.20;89.40;;;0.69;65.21;99397.03;4952579;29;20054;-40
2022/01/14 05:33:28;;;;;;;19.30;10.47;;;0.20;89.00;;;0.67;65.14;99400.66;4952185;29;20055;-41
2022/01/14 05:35:56;;;;;;;18.10;9.87;;;0.20;89.00;;;0.63;65.34;99399.03;4952131;29;20354;-40
2022/01/14 05:38:24;;;;;;;16.90;10.30;;;0.10;89.60;;;0.62;65.70;99406.06;4952416;29;20281;-41
2022/01/14 05:40:53;;;;;;;21.67;11.87;;;0.10;89.60;;;0.59;65.16;99409.63;4951721;29;20055;-41
2022/01/14 05:43:21;;;;;;;20.50;11.43;;;0.10;89.70;;;0.54;65.05;99414.22;4951564;29;20051;-41
2022/01/14 05:45:49;;;;;;;23.40;12.07;;;0.00;90.50;;;0.53;65.14;99401.16;4951412;29;20301;-41
2022/01/14 05:48:17;;;;;;;22.27;12.30;;;0.00;91.00;;;0.51;65.43;99406.44;4951497;29;20063;-41
2022/01/14 05:50:45;;;;;;;22.33;12.73;;;0.00;91.20;;;0.49;65.93;99395.16;4951541;29;20291;-41
2022/01/14 05:53:13;;;;;;;23.23;11.87;;;0.00;91.10;;;0.50;65.29;99399.47;4951657;29;20059;-41
2022/01/14 05:55:41;;;;;;;20.17;11.77;;;0.00;91.60;;;0.50;65.91;99396.00;4951074;29;20059;-41
2022/01/14 05:58:10;;;;;;;22.50;12.03;;;0.00;91.90;;;0.48;65.26;99398.66;4951602;29;20063;-41
2022/01/14 06:00:38;;;;;;;19.97;12.00;;;0.00;91.70;;;0.49;65.26;99392.53;4951272;29;20058;-42
2022/01/14 06:03:06;;;;;;;21.90;12.53;;;0.00;91.50;;;0.47;65.60;99393.50;4951857;29;20058;-41
2022/01/14 06:05:35;;;;;;;21.03;12.10;;;0.00;91.80;;;0.46;65.40;99383.94;4949512;29;20061;-41
2022/01/14 06:08:03;;;;;;;22.77;13.10;;;-0.10;92.00;;;0.47;65.84;99380.41;4950173;29;20059;-41
2022/01/14 06:10:31;;;;;;;18.53;11.53;;;0.00;91.90;;;0.47;65.72;99377.78;4950180;29;20341;-41
2022/01/14 06:12:59;;;;;;;21.83;11.93;;;0.00;92.50;;;0.41;65.64;99380.59;4951086;29;20073;-41
2022/01/14 06:15:28;;;;;;;22.10;12.90;;;0.00;93.70;;;0.44;66.07;99376.09;4951246;29;20134;-41
2022/01/14 06:17:56;;;;;;;20.77;11.70;;;0.10;94.40;;;0.48;66.54;99369.84;4951517;29;20057;-40
2022/01/14 06:20:24;;;;;;;18.47;10.53;;;0.10;94.10;;;0.52;66.09;99362.72;4950849;29;20058;-40
2022/01/14 06:22:53;;;;;;;15.57;10.37;;;0.10;94.00;;;0.57;65.92;99366.91;4949145;29;20077;-40
2022/01/14 06:25:21;;;;;;;20.57;9.80;;;0.20;93.50;;;0.57;66.16;99366.03;4949062;28;20067;-40
2022/01/14 06:27:49;;;;;;;14.47;8.43;;;0.20;93.00;;;0.59;65.96;99365.06;4951220;29;20055;-40
2022/01/14 06:30:21;;;;;;;16.33;8.17;;;0.20;93.40;;;0.59;65.97;99358.97;4951027;29;20047;-40
2022/01/14 06:32:56;;;;;;;11.97;7.40;;;0.20;91.50;;;0.61;65.61;99361.56;4950524;29;20062;-40
2022/01/14 06:35:25;;;;;;;9.93;7.13;;;0.20;91.70;;;0.61;66.21;99361.56;4950051;29;20055;-40
2022/01/14 06:37:53;;;;;;;11.20;6.23;;;0.20;91.60;;;0.55;66.18;99363.47;4951965;29;20457;-40
2022/01/14 06:40:21;;;;;;;13.13;8.50;;;0.20;91.20;;;0.56;66.45;99361.69;4950857;29;20054;-40
2022/01/14 06:42:50;;;;;;;10.37;7.47;;;0.20;91.80;;;0.58;66.11;99365.13;4950332;29;20073;-40
2022/01/14 06:45:20;;;;;;;12.27;7.33;;;0.20;91.80;;;0.57;65.63;99366.03;4950230;29;20062;-40
2022/01/14 06:47:48;;;;;;;11.03;7.00;;;0.20;91.20;;;0.53;66.29;99369.69;4950903;29;20248;-40
2022/01/14 06:50:18;;;;;;;10.47;7.57;;;0.20;91.60;;;0.52;66.63;99374.06;4949430;29;20055;-40
2022/01/14 06:52:46;;;;;;;13.03;7.83;;;0.20;92.00;;;0.48;66.89;99375.09;4950214;29;20051;-40
2022/01/14 06:55:14;;;;;;;13.73;7.53;;;0.20;92.50;;;0.45;67.00;99388.31;4951019;29;20058;-40
2022/01/14 06:57:42;;;;;;;11.63;7.87;;;0.10;93.20;;;0.46;66.03;99391.78;4951020;29;20063;-40
2022/01/14 07:00:15;;;;;;;12.90;8.27;;;0.10;93.50;;;0.43;66.91;99398.00;4950439;29;20067;-41
2022/01/14 07:02:44;;;;;;;12.60;8.17;;;0.00;93.20;;;0.47;66.58;99396.97;4949744;29;20052;-40
2022/01/14 07:05:12;;;;;;;15.10;8.87;;;0.10;93.50;;;0.51;66.11;99400.34;4949360;29;20473;-41
2022/01/14 07:07:41;;;;;;;18.20;9.30;;;0.10;92.80;;;0.55;66.00;99401.94;4951144;29;20059;-41
2022/01/14 07:10:14;;;;;;;14.50;7.40;;;0.20;93.30;;;0.55;66.75;99401.94;4933027;29;20227;-40
2022/01/14 07:12:44;;;;;;;11.87;7.47;;;0.20;92.70;;;0.59;66.13;99408.78;4948723;29;20055;-40
2022/01/14 07:15:16;;;;;;;12.00;7.10;;;0.20;93.20;;;0.58;66.57;99415.81;4948678;29;20059;-40
2022/01/14 07:17:44;;;;;;;11.83;7.10;;;0.20;92.20;;;0.59;66.23;99419.28;4951769;28;20495;-40
2022/01/14 07:20:17;;;;;;;12.50;8.47;;;0.20;92.80;;;0.61;66.24;99425.31;4949536;29;20361;-40
2022/01/14 07:22:47;;;;;;;13.97;8.47;;;0.20;92.00;;;0.62;66.52;99420.91;4948329;29;20051;-40
2022/01/14 07:25:19;;;;;;;14.67;9.37;;;0.20;92.00;;;0.58;65.88;99434.16;4948612;29;20124;-40
2022/01/14 07:27:48;;;;;;;15.90;9.97;;;0.20;92.20;;;0.58;66.49;99425.41;4949145;29;20218;-40
2022/01/14 07:30:16;;;;;;;19.57;11.57;;;0.20;92.70;;;0.61;65.81;99429.72;4948962;29;20055;-40
2022/01/14 07:32:45;;;;;;;20.87;12.10;;;0.20;93.30;;;0.63;65.67;99430.50;4965059;28;20085;-40
2022/01/14 07:35:13;;;;;;;23.70;13.30;;;0.20;93.60;;;0.66;65.73;99446.09;4947399;28;20423;-40
2022/01/14 07:37:42;;;;;;;24.00;12.93;;;0.30;93.50;;;0.64;66.09;99440.94;4950070;29;20226;-40
2022/01/14 07:40:11;;;;;;;53.57;22.87;;;0.20;93.20;;;0.59;65.64;99441.09;4949174;29;20051;-40
2022/01/14 07:42:39;;;;;;;47.57;21.17;;;0.10;92.80;;;0.58;65.78;99446.38;4949926;29;20252;-39
2022/01/14 07:45:08;;;;;;;45.07;22.07;;;0.10;93.30;;;0.55;66.10;99443.88;4949404;29;20055;-40
2022/01/14 07:47:36;;;;;;;58.60;26.47;;;0.00;93.20;;;0.54;65.71;99447.41;4949811;29;20630;-40
2022/01/14 07:50:05;;;;;;;47.53;22.90;;;0.00;93.70;;;0.53;66.20;99438.69;4948454;29;20051;-40
2022/01/14 07:52:33;;;;;;;42.47;21.23;;;0.00;94.10;;;0.54;66.58;99444.78;4949036;29;20170;-40
2022/01/14 07:55:01;;;;;;;51.07;24.17;;;0.00;94.00;;;0.54;66.57;99434.28;4950028;28;20375;-40
2022/01/14 07:57:30;;;;;;;46.03;23.87;;;0.00;94.20;;;0.52;66.62;99436.97;4949202;29;20042;-40
2022/01/14 07:59:58;;;;;;;40.47;19.80;;;0.00;94.40;;;0.52;66.62;99436.97;4949035;29;20054;-40
2022/01/14 08:02:26;;;;;;;45.40;24.43;;;0.00;94.50;;;0.54;66.35;99437.78;4963433;28;20356;-40
2022/01/14 08:04:55;;;;;;;31.57;17.20;;;0.10;95.00;;;0.58;66.76;99441.13;4948669;29;20371;-40
2022/01/14 08:07:25;;;;;;;24.60;13.23;;;0.10;95.10;;;0.61;66.84;99440.19;4949526;29;20391;-40
2022/01/14 08:09:54;;;;;;;17.30;10.67;;;0.20;94.50;;;0.61;66.59;99432.31;4964588;28;20043;-40
2022/01/14 08:12:22;;;;;;;21.40;11.97;;;0.20;94.40;;;0.63;66.38;99427.88;4949841;29;20502;-40
2022/01/14 08:14:50;;;;;;;15.00;10.23;;;0.20;94.80;;;0.65;66.62;99426.91;4949654;29;20063;-40
2022/01/14 08:17:21;;;;;;;18.67;10.00;;;0.20;94.70;;;0.66;66.15;99433.00;4949744;29;20055;-40
2022/01/14 08:19:49;;;;;;;15.47;10.33;;;0.20;94.60;;;0.68;66.31;99436.41;4929466;29;20054;-39
2022/01/14 08:22:17;;;;;;;13.70;9.33;;;0.20;94.90;;;0.72;66.26;99436.28;4928873;29;20357;-39
2022/01/14 08:24:45;;;;;;;14.27;9.43;;;0.30;94.80;;;0.76;66.41;99430.00;4929842;29;20071;-40
2022/01/14 08:27:13;;;;;;;13.87;8.47;;;0.40;94.80;;;0.80;66.71;99430.75;4929592;29;20051;-40
2022/01/14 08:29:42;;;;;;;13.27;8.73;;;0.40;94.20;;;0.84;66.84;99432.34;4921639;29;20057;-40
2022/01/14 08:32:10;;;;;;;16.30;8.40;;;0.50;94.50;;;0.88;66.87;99428.69;4930663;29;20170;-40
2022/01/14 08:34:38;;;;;;;16.03;9.33;;;0.30;94.10;;;0.91;66.38;99439.09;4929306;29;20261;-40
2022/01/14 08:37:07;;;;;;;14.73;9.53;;;0.50;94.00;;;0.97;66.42;99443.25;4928996;29;20070;-40
2022/01/14 08:39:35;;;;;;;15.23;10.00;;;0.60;93.80;;;1.02;66.12;99445.69;4929267;29;20051;-40
2022/01/14 08:42:04;;;;;;;15.50;9.37;;;0.70;93.70;;;1.06;66.91;99442.88;4929189;29;20062;-40
2022/01/14 08:44:33;;;;;;;15.97;9.97;;;0.70;93.30;;;1.09;66.90;99440.16;4929551;29;20067;-40
2022/01/14 08:47:01;;;;;;;15.33;9.90;;;0.80;93.10;;;1.11;66.74;99433.06;4930101;29;20059;-40
2022/01/14 08:49:29;;;;;;;15.80;9.57;;;0.70;93.40;;;1.14;66.68;99430.34;4929242;29;20057;-40
2022/01/14 08:51:57;;;;;;;16.97;9.80;;;0.80;93.60;;;1.18;66.62;99436.31;4929254;29;20062;-40
2022/01/14 08:54:25;;;;;;;17.00;11.03;;;0.90;93.70;;;1.24;66.40;99435.22;4928452;29;20249;-40
2022/01/14 08:56:54;;;;;;;16.57;9.17;;;0.90;93.70;;;1.29;66.67;99428.88;4929346;29;20062;-40
2022/01/14 08:59:22;;;;;;;18.07;9.80;;;1.00;93.40;;;1.34;66.81;99432.19;4931408;29;20061;-40
2022/01/14 09:01:50;;;;;;;15.53;9.40;;;1.00;93.40;;;1.40;66.38;99433.72;4945816;29;20054;-40
2022/01/14 09:04:18;;;;;;;17.50;10.80;;;1.20;93.40;;;1.44;66.88;99422.19;4946807;29;20043;-40
2022/01/14 09:06:46;;;;;;;16.33;10.27;;;1.20;93.40;;;1.48;66.40;99423.78;4947424;29;20069;-40
2022/01/14 09:09:15;;;;;;;18.53;10.73;;;1.20;93.40;;;1.51;66.90;99420.16;4947758;29;20055;-40
2022/01/14 09:11:44;;;;;;;17.87;10.70;;;1.20;93.80;;;1.53;67.08;99415.72;4947269;29;20050;-40
2022/01/14 09:14:37;;;;;;;16.37;10.27;;;1.20;94.20;;;1.55;66.46;99414.75;4930144;29;20545;-40
2022/01/14 09:17:06;;;;;;;13.33;8.30;;;1.30;94.60;;;1.57;66.80;99415.53;4932967;29;20140;-40
2022/01/14 09:19:35;;;;;;;15.67;9.00;;;1.30;94.60;;;1.61;67.00;99424.16;4946634;29;20275;-40
2022/01/14 09:22:04;;;;;;;18.07;9.97;;;1.30;94.60;;;1.66;66.70;99434.47;4948198;29;20061;-40
2022/01/14 09:24:46;;;;;;;15.10;9.43;;;1.40;94.80;;;1.71;66.80;99432.53;4948440;29;20233;-40
2022/01/14 09:27:16;;;;;;;16.87;9.77;;;1.40;94.50;;;1.76;67.00;99430.53;4948438;29;20081;-40
2022/01/14 09:29:44;;;;;;;14.07;9.10;;;1.50;94.30;;;1.81;66.98;99427.75;4940476;29;20062;-40
2022/01/14 09:32:12;;;;;;;17.57;9.70;;;1.60;93.90;;;1.85;66.71;99430.19;4947779;29;20055;-41
2022/01/14 09:34:40;;;;;;;15.67;9.03;;;1.60;93.70;;;1.92;66.63;99433.38;4948309;29;20252;-40
2022/01/14 09:37:08;;;;;;;14.07;7.73;;;1.60;93.40;;;1.95;66.75;99430.66;4947495;29;20063;-40
2022/01/14 09:39:37;;;;;;;14.57;9.20;;;1.70;93.20;;;1.99;66.74;99426.97;4947956;29;20086;-40
2022/01/14 09:42:07;;;;;;;14.93;8.80;;;1.70;93.10;;;2.04;66.75;99432.06;4946873;29;20051;-40
2022/01/14 09:44:35;;;;;;;12.30;8.40;;;1.80;93.10;;;2.07;66.76;99432.75;4946988;29;20099;-40
2022/01/14 09:47:04;;;;;;;12.23;8.43;;;1.80;92.80;;;2.10;66.63;99437.91;4945526;29;20054;-40
2022/01/14 09:49:32;;;;;;;13.33;9.30;;;1.80;92.60;;;2.12;66.88;99433.44;4948398;29;20238;-40
2022/01/14 09:52:01;;;;;;;14.73;9.83;;;1.90;92.60;;;2.15;66.57;99435.06;4948016;29;20329;-40
2022/01/14 09:54:30;;;;;;;12.97;8.77;;;1.90;92.90;;;2.18;66.77;99437.56;4947220;29;20043;-40
2022/01/14 09:56:58;;;;;;;14.07;8.03;;;1.90;93.00;;;2.23;66.61;99445.25;4947473;29;20069;-40
2022/01/14 09:59:26;;;;;;;14.67;9.43;;;2.00;93.00;;;2.25;66.76;99436.41;4948248;28;20357;-40
2022/01/14 10:01:55;;;;;;;14.57;8.07;;;2.00;93.00;;;2.31;66.50;99437.91;4950865;29;20268;-40
2022/01/14 10:04:23;;;;;;;13.67;8.90;;;2.10;93.20;;;2.35;66.73;99440.34;4951228;29;20207;-40
2022/01/14 10:06:57;;;;;;;15.10;7.93;;;2.10;93.00;;;2.38;66.88;99435.88;4951239;29;20238;-40
2022/01/14 10:09:37;;;;;;;15.07;9.10;;;2.10;92.80;;;2.40;66.62;99436.66;4950858;29;20058;-41
2022/01/14 10:12:10;;;;;;;15.93;10.00;;;2.20;92.80;;;2.45;66.74;99429.44;4951160;29;20226;-40
2022/01/14 10:14:43;;;;;;;14.00;8.33;;;2.20;92.60;;;2.48;66.89;99435.41;4951843;29;20393;-41
2022/01/14 10:17:12;;;;;;;13.90;9.50;;;2.20;92.30;;;2.50;66.80;99430.06;4951075;29;20298;-40
2022/01/14 10:19:46;;;;;;;13.97;8.70;;;2.30;92.50;;;2.54;66.91;99432.53;4950079;29;20370;-40
2022/01/14 10:22:39;;;;;;;10.90;7.80;;;2.30;92.40;;;2.59;66.61;99434.94;4949826;29;20063;-40
2022/01/14 10:25:09;;;;;;;15.07;7.97;;;2.40;92.10;;;2.62;66.62;99428.69;4949674;29;20214;-40
2022/01/14 10:27:49;;;;;;;13.63;8.43;;;2.40;91.80;;;2.66;66.82;99425.88;4951212;29;20062;-40
2022/01/14 10:30:33;;;;;;;12.80;9.20;;;2.50;91.80;;;2.70;66.44;99435.31;4949798;29;20225;-40
2022/01/14 10:33:07;;;;;;;14.93;8.88;;;2.50;91.50;;;2.73;66.48;99436.97;4950404;29;20059;-40
2022/01/14 10:35:54;;;;;;;14.30;8.43;;;2.60;91.10;;;2.75;66.53;99430.72;4949097;29;20059;-40
2022/01/14 10:38:26;;;;;;;15.73;8.87;;;2.60;90.00;;;2.78;66.46;99424.47;4952554;29;20415;-40
2022/01/14 10:40:59;;;;;;;15.10;8.77;;;2.60;89.70;;;2.83;66.56;99432.13;4950773;29;20051;-40
2022/01/14 10:43:33;;;;;;;15.63;8.60;;;2.70;89.40;;;2.86;66.39;99424.97;4950684;29;20054;-40
2022/01/14 10:46:07;;;;;;;14.95;8.88;;;2.70;89.20;;;2.90;66.21;99423.06;4950353;29;20055;-40
2022/01/14 10:48:38;;;;;;;12.60;8.23;;;2.80;88.90;;;2.92;66.10;99414.16;4950933;29;20045;-41
2022/01/14 10:51:12;;;;;;;13.10;8.93;;;2.80;88.60;;;2.94;65.97;99408.84;4951101;29;20055;-40
2022/01/14 10:53:51;;;;;;;14.55;8.52;;;2.80;88.50;;;2.95;66.10;99400.88;4948399;29;20067;-40
2022/01/14 10:56:23;;;;;;;13.10;7.47;;;2.80;88.20;;;3.01;66.16;99399.75;4950600;29;20070;-40
2022/01/14 10:58:56;;;;;;;17.00;8.80;;;2.80;88.20;;;3.04;66.22;99407.47;4949806;29;20055;-40
2022/01/14 11:01:25;;;;;;;17.20;9.55;;;2.80;87.90;;;3.07;66.12;99402.09;4951152;29;20051;-40